Time;durP1;ratioP1;P1;durP2;ratioP2;P2;SDS_P1;SDS_P2;PMS_P1;PMS_P2;Temp;Humidity;BMP_temperature;BMP_pressure;BME280_temperature;BME280_humidity;BME280_pressure;Samples;Min_cycle;Max_cycle;Signal;HPM_P1;HPM_P2
2022/07/14 00:01:47;;;;;;;2.15;1.35;;;25.40;72.90;;;;;;4858646;29;20033;-83
2022/07/14 00:04:13;;;;;;;4.10;1.50;;;25.40;73.00;;;;;;4849359;29;20069;-83
2022/07/14 00:06:39;;;;;;;6.38;1.50;;;25.30;72.30;;;;;;4855002;29;20143;-83
2022/07/14 00:09:10;;;;;;;7.75;1.40;;;25.30;72.00;;;;;;4843432;29;20038;-83
2022/07/14 00:11:36;;;;;;;4.00;1.33;;;25.30;71.40;;;;;;4860080;29;20030;-83
2022/07/14 00:14:01;;;;;;;3.65;1.30;;;25.30;71.10;;;;;;4853691;29;20045;-83
2022/07/14 00:16:27;;;;;;;4.65;0.90;;;25.40;71.30;;;;;;4849685;29;20022;-83
2022/07/14 00:18:53;;;;;;;2.65;1.13;;;25.40;71.00;;;;;;4855094;29;20029;-83
2022/07/14 00:21:19;;;;;;;5.68;1.58;;;25.40;71.00;;;;;;4851609;29;20353;-83
2022/07/14 00:23:46;;;;;;;3.38;1.08;;;25.40;70.90;;;;;;4848176;29;20026;-83
2022/07/14 00:26:12;;;;;;;4.30;1.20;;;25.30;71.60;;;;;;4854654;29;20037;-83
2022/07/14 00:28:38;;;;;;;5.75;1.15;;;25.30;71.20;;;;;;4857506;29;20040;-83
2022/07/14 00:31:09;;;;;;;8.88;1.15;;;25.30;71.40;;;;;;4857352;29;20112;-83
2022/07/14 00:33:36;;;;;;;2.70;1.20;;;25.30;71.50;;;;;;4858928;29;20400;-83
2022/07/14 00:36:01;;;;;;;4.95;1.58;;;25.30;72.10;;;;;;4859153;29;20271;-83
2022/07/14 00:38:27;;;;;;;5.32;1.10;;;25.20;72.00;;;;;;4854414;29;20350;-83
2022/07/14 00:40:53;;;;;;;3.92;1.08;;;25.20;71.70;;;;;;4853446;29;20082;-84
2022/07/14 00:43:19;;;;;;;3.20;1.25;;;25.20;72.30;;;;;;4851415;29;20026;-83
2022/07/14 00:45:45;;;;;;;7.35;1.23;;;25.20;72.20;;;;;;4854240;29;20041;-83
2022/07/14 00:48:12;;;;;;;6.53;1.30;;;25.10;72.80;;;;;;4863777;29;20042;-83
2022/07/14 00:50:41;;;;;;;2.95;1.20;;;25.00;73.20;;;;;;4855138;29;20037;-83
2022/07/14 00:53:08;;;;;;;1.75;1.10;;;25.00;73.00;;;;;;4856508;29;20391;-83
2022/07/14 00:55:35;;;;;;;3.47;1.20;;;25.00;72.90;;;;;;4856184;29;20030;-83
2022/07/14 00:58:01;;;;;;;2.65;1.17;;;24.90;73.30;;;;;;4858110;29;20037;-83
2022/07/14 01:00:26;;;;;;;2.60;1.13;;;24.80;73.60;;;;;;4858365;29;20022;-83
2022/07/14 01:02:52;;;;;;;6.97;1.52;;;24.70;74.10;;;;;;4850034;29;20030;-83
2022/07/14 01:05:18;;;;;;;3.47;1.60;;;24.70;74.50;;;;;;4848428;29;20018;-83
2022/07/14 01:07:44;;;;;;;4.72;1.52;;;24.60;74.50;;;;;;4848726;29;20057;-83
2022/07/14 01:10:10;;;;;;;2.63;1.50;;;24.50;74.30;;;;;;4850018;29;20040;-83
2022/07/14 01:12:37;;;;;;;3.67;1.35;;;24.50;74.90;;;;;;4858569;29;20030;-83
2022/07/14 01:15:04;;;;;;;4.47;1.40;;;24.50;75.20;;;;;;4853301;29;20038;-83
2022/07/14 01:17:31;;;;;;;2.22;1.25;;;24.50;75.40;;;;;;4852294;29;20029;-83
2022/07/14 01:19:56;;;;;;;5.50;1.30;;;24.40;75.40;;;;;;4850512;29;20082;-83
2022/07/14 01:22:22;;;;;;;2.75;1.42;;;24.40;75.00;;;;;;4855048;29;20034;-83
2022/07/14 01:24:47;;;;;;;11.13;1.63;;;24.40;75.50;;;;;;4851921;29;20106;-83
2022/07/14 01:27:13;;;;;;;8.45;1.23;;;24.40;74.90;;;;;;4856159;29;20048;-83
2022/07/14 01:29:39;;;;;;;4.90;1.20;;;24.50;74.80;;;;;;4854395;29;20437;-83
2022/07/14 01:32:05;;;;;;;4.47;1.50;;;24.50;74.90;;;;;;4857260;29;20142;-83
2022/07/14 01:34:31;;;;;;;2.80;1.33;;;24.50;74.80;;;;;;4856839;29;20465;-83
2022/07/14 01:36:57;;;;;;;2.65;1.15;;;24.40;75.10;;;;;;4858710;29;20076;-83
2022/07/14 01:39:22;;;;;;;3.50;1.23;;;24.40;75.20;;;;;;4846756;29;20509;-83
2022/07/14 01:41:49;;;;;;;3.03;1.02;;;24.40;75.30;;;;;;4848227;29;20022;-83
2022/07/14 01:44:16;;;;;;;3.42;1.00;;;24.40;75.50;;;;;;4853427;29;20089;-83
2022/07/14 01:46:42;;;;;;;4.15;1.40;;;24.40;75.80;;;;;;4850844;29;20026;-83
2022/07/14 01:49:07;;;;;;;3.72;1.10;;;24.40;75.70;;;;;;4853893;29;20045;-83
2022/07/14 01:51:34;;;;;;;3.13;1.02;;;24.30;75.30;;;;;;4868004;29;20025;-83
2022/07/14 01:54:00;;;;;;;4.10;1.48;;;24.30;76.00;;;;;;4854893;29;20199;-83
2022/07/14 01:56:25;;;;;;;3.15;1.40;;;24.20;76.30;;;;;;4856767;29;20032;-83
2022/07/14 01:58:51;;;;;;;2.00;1.20;;;24.20;76.40;;;;;;4855911;29;20029;-83
2022/07/14 02:04:02;;;;;;;6.45;1.50;;;24.10;77.00;;;;;;4840596;29;20145;-83
2022/07/14 02:06:29;;;;;;;2.97;1.00;;;24.10;78.30;;;;;;4850788;29;20118;-83
2022/07/14 02:08:58;;;;;;;3.10;1.30;;;24.10;78.00;;;;;;4840163;29;20041;-83
2022/07/14 02:14:08;;;;;;;6.53;1.55;;;24.10;79.20;;;;;;4856991;29;20053;-83
2022/07/14 02:16:34;;;;;;;3.05;1.50;;;24.00;81.30;;;;;;4847783;29;20034;-83
2022/07/14 02:19:00;;;;;;;5.38;1.60;;;24.00;83.30;;;;;;4852604;29;20041;-83
2022/07/14 02:21:27;;;;;;;7.38;1.42;;;23.90;84.40;;;;;;4848958;29;20022;-83
2022/07/14 02:23:52;;;;;;;9.70;1.95;;;23.90;84.60;;;;;;4853916;29;20323;-83
2022/07/14 02:26:18;;;;;;;5.18;1.30;;;23.80;85.30;;;;;;4851245;29;20320;-83
2022/07/14 02:28:44;;;;;;;2.05;1.30;;;23.70;85.80;;;;;;4854915;29;20047;-83
2022/07/14 02:31:10;;;;;;;3.40;1.40;;;23.70;86.50;;;;;;4854183;29;20104;-83
2022/07/14 02:33:37;;;;;;;12.80;1.92;;;23.70;87.30;;;;;;4856533;29;20048;-83
2022/07/14 02:36:04;;;;;;;4.38;1.60;;;23.60;88.00;;;;;;4856933;29;20032;-83
2022/07/14 02:38:30;;;;;;;2.83;1.23;;;23.60;88.70;;;;;;4857182;29;20025;-83
2022/07/14 02:40:56;;;;;;;3.05;1.25;;;23.50;89.00;;;;;;4851890;29;20033;-83
2022/07/14 02:43:22;;;;;;;6.00;1.33;;;23.60;89.40;;;;;;4848349;29;20078;-84
2022/07/14 02:45:48;;;;;;;3.03;1.48;;;23.50;90.00;;;;;;4851699;29;20521;-83
2022/07/14 02:48:15;;;;;;;3.88;1.60;;;23.50;90.20;;;;;;4851642;29;20486;-83
2022/07/14 02:50:41;;;;;;;10.77;1.92;;;23.40;90.40;;;;;;4852789;29;20085;-83
2022/07/14 02:53:07;;;;;;;4.13;1.40;;;23.40;90.40;;;;;;4854579;29;20029;-83
2022/07/14 02:55:36;;;;;;;2.50;1.45;;;23.40;90.50;;;;;;4853367;29;20045;-83
2022/07/14 02:58:04;;;;;;;4.80;1.65;;;23.30;90.70;;;;;;4856022;29;20161;-83
2022/07/14 03:00:30;;;;;;;7.65;1.90;;;23.30;90.90;;;;;;4855386;29;20399;-83
2022/07/14 03:02:56;;;;;;;6.03;1.60;;;23.30;91.30;;;;;;4856766;29;20025;-83
2022/07/14 03:05:23;;;;;;;7.88;1.80;;;23.30;91.50;;;;;;4842101;29;20025;-83
2022/07/14 03:07:48;;;;;;;5.85;1.88;;;23.30;91.80;;;;;;4844819;29;20042;-83
2022/07/14 03:10:14;;;;;;;4.68;1.77;;;23.30;92.00;;;;;;4848451;29;20033;-83
2022/07/14 03:12:40;;;;;;;6.07;1.92;;;23.20;92.20;;;;;;4856078;29;20072;-83
2022/07/14 03:15:07;;;;;;;5.95;1.80;;;23.10;92.50;;;;;;4857806;29;20038;-83
2022/07/14 03:17:33;;;;;;;6.40;2.03;;;23.10;92.70;;;;;;4850265;29;20030;-83
2022/07/14 03:19:59;;;;;;;5.35;1.80;;;23.10;92.90;;;;;;4848187;29;20030;-83
2022/07/14 03:22:24;;;;;;;2.35;1.45;;;23.10;93.00;;;;;;4851460;29;20030;-83
2022/07/14 03:24:50;;;;;;;3.95;2.30;;;23.00;93.20;;;;;;4849353;29;20041;-83
2022/07/14 03:27:16;;;;;;;7.55;1.90;;;23.00;93.30;;;;;;4853959;29;20038;-83
2022/07/14 03:29:42;;;;;;;7.78;1.90;;;22.90;93.50;;;;;;4851924;29;20069;-84
2022/07/14 03:32:08;;;;;;;4.10;1.90;;;23.00;93.70;;;;;;4855364;29;20029;-83
2022/07/14 03:34:34;;;;;;;4.50;1.80;;;22.90;93.70;;;;;;4868491;29;20455;-83
2022/07/14 03:36:59;;;;;;;4.13;2.00;;;23.00;93.70;;;;;;4856707;29;20116;-83
2022/07/14 03:39:26;;;;;;;4.68;2.10;;;23.00;93.80;;;;;;4857880;29;20081;-83
2022/07/14 03:41:52;;;;;;;5.05;2.63;;;22.90;93.80;;;;;;4842999;29;20320;-83
2022/07/14 03:44:18;;;;;;;6.50;2.47;;;22.90;93.90;;;;;;4854917;29;20304;-83
2022/07/14 03:46:44;;;;;;;4.63;2.00;;;22.90;94.10;;;;;;4852562;29;20416;-83
2022/07/14 03:49:10;;;;;;;5.30;1.90;;;22.80;94.20;;;;;;4855572;29;20447;-83
2022/07/14 03:51:41;;;;;;;6.10;1.83;;;22.80;94.30;;;;;;4855408;29;20033;-83
2022/07/14 03:54:06;;;;;;;5.00;2.00;;;22.80;94.30;;;;;;4856891;29;20040;-83
2022/07/14 03:56:32;;;;;;;5.53;1.83;;;22.80;94.40;;;;;;4857664;29;20030;-83
2022/07/14 03:58:58;;;;;;;2.58;1.70;;;22.80;94.40;;;;;;4857487;29;20494;-83
2022/07/14 04:01:23;;;;;;;7.05;2.00;;;22.80;94.50;;;;;;4859449;29;20407;-83
2022/07/14 04:03:51;;;;;;;2.90;1.73;;;22.80;94.50;;;;;;4859495;29;20025;-83
2022/07/14 04:06:17;;;;;;;4.55;2.33;;;22.80;94.60;;;;;;4854239;29;20137;-84
2022/07/14 04:08:44;;;;;;;6.05;2.05;;;22.80;94.50;;;;;;4845179;29;20134;-83
2022/07/14 04:11:11;;;;;;;4.13;1.77;;;22.70;94.60;;;;;;4856653;29;20029;-83
2022/07/14 04:13:36;;;;;;;9.02;1.85;;;22.80;94.70;;;;;;4859603;29;20030;-83
2022/07/14 04:16:02;;;;;;;6.50;2.05;;;22.70;94.70;;;;;;4856972;29;20079;-83
2022/07/14 04:18:29;;;;;;;3.33;1.83;;;22.70;94.60;;;;;;4851211;29;20021;-83
2022/07/14 04:20:54;;;;;;;3.42;2.05;;;22.70;94.70;;;;;;4853861;29;20029;-83
2022/07/14 04:23:20;;;;;;;5.45;1.75;;;22.70;94.70;;;;;;4851987;29;20038;-83
2022/07/14 04:25:47;;;;;;;6.57;2.20;;;22.70;94.90;;;;;;4856125;29;20029;-83
2022/07/14 04:28:14;;;;;;;7.25;2.45;;;22.70;95.10;;;;;;4844245;29;20038;-83
2022/07/14 04:30:39;;;;;;;6.95;2.00;;;22.70;95.50;;;;;;4857215;29;20501;-83
2022/07/14 04:33:05;;;;;;;5.40;2.50;;;22.70;95.70;;;;;;4855450;29;20042;-83
2022/07/14 04:35:31;;;;;;;6.30;3.13;;;22.60;95.90;;;;;;4872460;29;20030;-83
2022/07/14 04:37:56;;;;;;;4.55;3.10;;;22.60;96.20;;;;;;4858184;29;20033;-84
2022/07/14 04:40:22;;;;;;;7.72;4.25;;;22.60;96.50;;;;;;4859549;29;20376;-84
2022/07/14 04:42:48;;;;;;;13.98;11.10;;;22.60;96.70;;;;;;4854129;29;20033;-83
2022/07/14 04:45:13;;;;;;;7.63;6.32;;;22.60;97.20;;;;;;4848940;29;20399;-83
2022/07/14 04:47:39;;;;;;;4.88;3.33;;;22.60;97.70;;;;;;4854587;29;20394;-83
2022/07/14 04:52:50;;;;;;;7.57;2.30;;;22.60;98.20;;;;;;4848915;29;20037;-83
2022/07/14 04:55:16;;;;;;;3.42;2.33;;;22.60;98.50;;;;;;4853865;29;20026;-84
2022/07/14 04:57:42;;;;;;;8.05;2.72;;;22.60;98.80;;;;;;4857392;29;20036;-83
2022/07/14 05:00:09;;;;;;;8.65;2.42;;;22.60;99.00;;;;;;4856502;29;20026;-83
2022/07/14 05:02:35;;;;;;;3.60;2.30;;;22.60;99.30;;;;;;4872624;29;20196;-83
2022/07/14 05:05:02;;;;;;;4.88;2.40;;;22.60;99.40;;;;;;4858660;29;20037;-84
2022/07/14 05:07:27;;;;;;;5.70;2.40;;;22.60;99.60;;;;;;4841144;29;20081;-83
2022/07/14 05:09:53;;;;;;;5.78;2.60;;;22.60;99.60;;;;;;4857386;29;20104;-83
2022/07/14 05:12:19;;;;;;;7.93;2.30;;;22.60;99.70;;;;;;4857489;29;20041;-83
2022/07/14 05:14:45;;;;;;;4.45;2.28;;;22.60;99.80;;;;;;4858030;29;20033;-83
2022/07/14 05:17:11;;;;;;;6.20;2.30;;;22.60;99.80;;;;;;4858868;29;20044;-83
2022/07/14 05:19:37;;;;;;;5.72;3.00;;;22.60;99.90;;;;;;4849201;29;20105;-84
2022/07/14 05:22:03;;;;;;;5.85;2.40;;;22.60;99.90;;;;;;4852939;29;20029;-84
2022/07/14 05:24:29;;;;;;;3.28;2.15;;;22.70;99.90;;;;;;4851943;29;20545;-83
2022/07/14 05:26:58;;;;;;;4.88;2.55;;;22.70;99.90;;;;;;4853573;29;20108;-83
2022/07/14 05:29:25;;;;;;;5.97;2.60;;;22.70;99.90;;;;;;4854607;29;20120;-83
2022/07/14 05:31:51;;;;;;;2.65;2.13;;;22.80;99.90;;;;;;4855029;29;20054;-83
2022/07/14 05:34:17;;;;;;;13.93;2.72;;;22.90;99.90;;;;;;4856865;29;20025;-84
2022/07/14 05:36:43;;;;;;;5.95;2.40;;;22.90;99.90;;;;;;4855943;29;20407;-84
2022/07/14 05:39:08;;;;;;;3.97;2.70;;;22.90;99.90;;;;;;4849060;29;20030;-83
2022/07/14 05:41:34;;;;;;;5.90;2.30;;;23.00;99.90;;;;;;4852882;29;20059;-83
2022/07/14 05:44:00;;;;;;;2.83;2.08;;;22.90;99.90;;;;;;4849730;29;20034;-84
2022/07/14 05:46:25;;;;;;;8.43;2.35;;;23.00;99.90;;;;;;4852624;29;20030;-84
2022/07/14 05:48:51;;;;;;;10.07;2.38;;;23.10;99.90;;;;;;4850072;29;20033;-83
2022/07/14 05:51:18;;;;;;;4.40;2.10;;;23.10;99.90;;;;;;4854876;29;20105;-83
2022/07/14 05:53:46;;;;;;;6.10;2.20;;;23.10;99.90;;;;;;4851828;29;20017;-83
2022/07/14 05:56:12;;;;;;;4.28;2.15;;;23.20;99.90;;;;;;4856106;29;20073;-83
2022/07/14 05:58:38;;;;;;;6.47;1.90;;;23.20;99.90;;;;;;4868335;29;20025;-83
2022/07/14 06:01:05;;;;;;;9.85;2.15;;;23.30;99.90;;;;;;4856782;29;20566;-83
2022/07/14 06:03:31;;;;;;;8.45;2.40;;;23.30;99.80;;;;;;4856492;29;20379;-83
2022/07/14 06:06:01;;;;;;;4.68;2.10;;;23.30;99.80;;;;;;4857876;29;20026;-83
2022/07/14 06:08:28;;;;;;;5.03;2.20;;;23.30;99.70;;;;;;4845255;29;20049;-83
2022/07/14 06:10:55;;;;;;;4.93;2.25;;;23.30;99.50;;;;;;4851532;29;20029;-83
2022/07/14 06:13:26;;;;;;;4.95;2.17;;;23.40;99.60;;;;;;4857218;29;20029;-83
2022/07/14 06:15:52;;;;;;;3.80;2.50;;;23.50;99.30;;;;;;4857323;29;20109;-83
2022/07/14 06:18:18;;;;;;;5.20;2.10;;;23.60;99.00;;;;;;4852014;29;20222;-83
2022/07/14 06:20:44;;;;;;;5.13;2.30;;;23.70;99.00;;;;;;4852449;29;20033;-83
2022/07/14 06:23:11;;;;;;;6.88;2.22;;;23.70;99.20;;;;;;4847865;29;20470;-83
2022/07/14 06:25:37;;;;;;;7.20;2.40;;;23.70;98.90;;;;;;4852312;29;20040;-84
2022/07/14 06:28:03;;;;;;;3.22;1.90;;;23.60;98.80;;;;;;4850610;29;20045;-84
2022/07/14 06:30:30;;;;;;;4.85;2.38;;;23.70;98.50;;;;;;4840654;29;20026;-83
2022/07/14 06:32:56;;;;;;;7.45;2.50;;;23.80;98.30;;;;;;4847328;29;20037;-84
2022/07/14 06:35:21;;;;;;;5.22;2.28;;;23.70;98.20;;;;;;4842060;29;20105;-83
2022/07/14 06:37:48;;;;;;;5.18;2.47;;;23.60;97.80;;;;;;4849044;29;20033;-84
2022/07/14 06:40:14;;;;;;;9.50;2.00;;;23.50;98.00;;;;;;4855498;29;20025;-84
2022/07/14 06:42:40;;;;;;;6.50;2.40;;;23.70;97.50;;;;;;4855137;29;20037;-84
2022/07/14 06:45:06;;;;;;;9.40;2.63;;;23.70;97.30;;;;;;4858374;29;20025;-84
2022/07/14 06:47:31;;;;;;;6.72;2.00;;;23.80;97.10;;;;;;4850486;29;20022;-84
2022/07/14 06:49:59;;;;;;;7.35;2.33;;;23.90;96.90;;;;;;4845976;29;20032;-84
2022/07/14 06:52:25;;;;;;;3.13;2.13;;;23.90;97.10;;;;;;4839673;29;20022;-85
2022/07/14 06:54:52;;;;;;;5.10;1.90;;;24.00;96.90;;;;;;4839610;29;20029;-84
2022/07/14 06:57:18;;;;;;;3.85;2.03;;;24.10;96.40;;;;;;4837748;29;20536;-85
2022/07/14 06:59:44;;;;;;;3.97;2.10;;;24.00;96.10;;;;;;4841851;29;20526;-85
2022/07/14 07:02:10;;;;;;;3.65;1.90;;;24.00;96.20;;;;;;4847745;29;20026;-85
2022/07/14 07:04:35;;;;;;;4.20;1.73;;;23.90;95.90;;;;;;4856980;29;20325;-85
2022/07/14 07:07:01;;;;;;;5.18;2.20;;;24.00;96.30;;;;;;4843834;29;20457;-85
2022/07/14 07:09:26;;;;;;;6.88;2.20;;;24.00;96.20;;;;;;4843140;29;20036;-85
2022/07/14 07:11:52;;;;;;;6.25;2.03;;;24.10;96.40;;;;;;4855818;29;20479;-85
2022/07/14 07:14:18;;;;;;;8.20;1.92;;;24.20;95.70;;;;;;4875122;29;20025;-85
2022/07/14 07:16:47;;;;;;;4.70;2.30;;;24.30;95.40;;;;;;4866613;29;20076;-85
2022/07/14 07:19:13;;;;;;;4.32;2.00;;;24.40;95.50;;;;;;4855470;29;20030;-85
2022/07/14 07:21:39;;;;;;;6.03;1.92;;;24.40;95.30;;;;;;4844484;29;20037;-85
2022/07/14 07:24:05;;;;;;;7.25;2.10;;;24.50;95.40;;;;;;4850859;29;20030;-86
2022/07/14 07:26:37;;;;;;;4.10;2.30;;;24.60;95.30;;;;;;4871666;29;20197;-86
2022/07/14 07:29:04;;;;;;;7.07;1.92;;;24.70;95.30;;;;;;4856264;29;20112;-86
2022/07/14 07:31:31;;;;;;;5.57;1.80;;;24.80;94.90;;;;;;4860931;29;20252;-87
2022/07/14 07:33:57;;;;;;;6.80;1.85;;;24.90;94.40;;;;;;4861627;29;20061;-86
2022/07/14 07:36:23;;;;;;;3.58;2.00;;;25.00;94.30;;;;;;4861368;29;20036;-85
2022/07/14 07:38:48;;;;;;;3.47;2.00;;;25.10;94.40;;;;;;4860234;29;20033;-86
2022/07/14 07:41:14;;;;;;;7.22;2.38;;;25.20;94.00;;;;;;4860911;29;20082;-88
2022/07/14 07:43:40;;;;;;;4.43;1.92;;;25.30;94.20;;;;;;4869351;29;20414;-84
2022/07/14 07:46:07;;;;;;;7.18;1.98;;;25.40;94.10;;;;;;4850930;29;20026;-85
2022/07/14 07:48:33;;;;;;;6.50;2.00;;;25.40;93.60;;;;;;4855769;29;20124;-85
2022/07/14 07:50:59;;;;;;;2.47;1.50;;;25.50;93.40;;;;;;4845974;29;20042;-89
2022/07/14 07:53:25;;;;;;;2.70;1.73;;;25.60;93.20;;;;;;4844015;29;20053;-84
2022/07/14 07:55:54;;;;;;;4.15;1.75;;;25.70;92.60;;;;;;4853906;29;20503;-85
2022/07/14 07:58:20;;;;;;;3.70;1.45;;;25.80;92.30;;;;;;4853201;29;20478;-85
2022/07/14 08:00:47;;;;;;;6.05;2.10;;;25.90;92.10;;;;;;4855833;29;20057;-85
2022/07/14 08:03:13;;;;;;;3.03;1.60;;;26.00;92.00;;;;;;4856126;29;20029;-85
2022/07/14 08:05:40;;;;;;;4.03;1.75;;;26.10;91.70;;;;;;4856573;29;20066;-86
2022/07/14 08:08:09;;;;;;;4.35;1.45;;;26.30;91.30;;;;;;4851401;29;20056;-85
2022/07/14 08:10:36;;;;;;;6.00;1.90;;;26.40;91.00;;;;;;4852566;29;20034;-85
2022/07/14 08:13:03;;;;;;;3.75;1.83;;;26.50;90.90;;;;;;4857050;29;20022;-85
2022/07/14 08:15:28;;;;;;;3.20;1.77;;;26.60;90.90;;;;;;4859023;29;20029;-85
2022/07/14 08:17:54;;;;;;;9.95;1.80;;;26.70;90.50;;;;;;4855547;29;20029;-86
2022/07/14 08:20:20;;;;;;;4.32;1.50;;;26.80;90.70;;;;;;4845716;29;20021;-85
2022/07/14 08:22:45;;;;;;;4.47;1.67;;;27.00;90.90;;;;;;4852343;29;20033;-85
2022/07/14 08:25:11;;;;;;;5.07;1.55;;;27.00;89.40;;;;;;4851671;29;20116;-85
2022/07/14 08:27:37;;;;;;;9.90;1.80;;;27.20;90.00;;;;;;4855285;29;20056;-85
2022/07/14 08:30:04;;;;;;;6.15;1.80;;;27.20;90.20;;;;;;4853093;29;20535;-85
2022/07/14 08:32:49;;;;;;;5.22;1.90;;;27.30;90.60;;;;;;4856677;29;20081;-85
2022/07/14 08:35:17;;;;;;;4.88;1.88;;;27.40;90.70;;;;;;4856012;29;20026;-85
2022/07/14 08:37:43;;;;;;;4.60;2.20;;;27.40;90.20;;;;;;4858168;29;20054;-85
2022/07/14 08:40:11;;;;;;;6.07;1.80;;;27.50;89.90;;;;;;4857422;29;20026;-86
2022/07/14 08:42:38;;;;;;;4.25;1.55;;;27.50;89.30;;;;;;4859294;29;20030;-85
2022/07/14 08:45:12;;;;;;;5.57;2.05;;;27.50;89.10;;;;;;4856488;29;20037;-85
2022/07/14 08:47:38;;;;;;;;;;;27.60;89.00;;;;;;4852008;29;20098;-85
2022/07/14 08:50:05;;;;;;;5.60;1.52;;;27.70;89.30;;;;;;4851831;29;19919;-86
2022/07/14 08:52:32;;;;;;;7.30;1.73;;;27.80;87.70;;;;;;4853883;29;20481;-85
2022/07/14 08:54:58;;;;;;;3.53;1.40;;;27.90;86.00;;;;;;4854468;29;20026;-86
2022/07/14 08:57:24;;;;;;;3.58;1.83;;;28.00;86.70;;;;;;4854489;29;20563;-86
2022/07/14 08:59:49;;;;;;;4.40;1.67;;;28.20;86.00;;;;;;4856990;29;20030;-85
2022/07/14 09:02:15;;;;;;;3.58;1.30;;;28.40;83.10;;;;;;4855627;29;20090;-86
2022/07/14 09:04:45;;;;;;;5.30;1.48;;;28.40;83.10;;;;;;4858185;29;20097;-86
2022/07/14 09:07:12;;;;;;;4.80;1.75;;;28.60;81.60;;;;;;4856744;29;20080;-85
2022/07/14 09:09:38;;;;;;;5.18;1.58;;;28.60;80.60;;;;;;4840449;29;20455;-85
2022/07/14 09:12:06;;;;;;;4.88;1.52;;;28.70;80.60;;;;;;4871269;29;20038;-85
2022/07/14 09:17:24;;;;;;;4.38;1.85;;;28.80;80.80;;;;;;4858141;29;20046;-85
2022/07/14 09:20:10;;;;;;;3.58;1.50;;;28.90;81.00;;;;;;4841112;29;20035;-85
2022/07/14 09:22:41;;;;;;;3.67;1.52;;;29.00;81.30;;;;;;4862284;29;20391;-85
2022/07/14 09:25:10;;;;;;;7.68;1.88;;;29.10;82.60;;;;;;4850309;29;20491;-86
2022/07/14 09:27:36;;;;;;;4.47;1.55;;;29.10;81.10;;;;;;4854769;29;20063;-85
2022/07/14 09:30:04;;;;;;;38.15;3.90;;;29.20;80.00;;;;;;4851582;29;20033;-85
2022/07/14 09:32:50;;;;;;;8.05;1.55;;;29.30;81.10;;;;;;4855313;29;20017;-85
2022/07/14 09:35:21;;;;;;;5.80;1.88;;;29.40;79.60;;;;;;4854721;29;20033;-86
2022/07/14 09:37:48;;;;;;;3.50;1.30;;;29.50;80.50;;;;;;4855719;29;20452;-86
2022/07/14 09:40:27;;;;;;;6.53;1.70;;;29.70;79.20;;;;;;4844407;29;20473;-85
2022/07/14 09:42:59;;;;;;;6.00;1.63;;;29.70;80.20;;;;;;4854724;29;20385;-86
2022/07/14 09:45:29;;;;;;;3.53;1.48;;;29.80;79.60;;;;;;4834113;29;20030;-88
2022/07/14 09:48:13;;;;;;;2.75;1.20;;;29.90;78.90;;;;;;4849352;29;20049;-88
2022/07/14 09:50:51;;;;;;;7.65;1.33;;;30.00;78.40;;;;;;4843140;29;20036;-88
2022/07/14 09:53:23;;;;;;;4.10;1.30;;;30.10;76.40;;;;;;4852666;29;20110;-86
2022/07/14 09:56:06;;;;;;;3.42;1.20;;;30.20;75.90;;;;;;4853286;29;20029;-85
2022/07/14 09:58:44;;;;;;;3.15;1.20;;;30.30;74.40;;;;;;4852627;29;20066;-85
2022/07/14 10:01:15;;;;;;;4.47;1.30;;;30.40;76.70;;;;;;4847646;29;20064;-85
2022/07/14 10:03:42;;;;;;;7.35;1.55;;;30.50;76.00;;;;;;4854949;29;20514;-85
2022/07/14 10:06:09;;;;;;;3.70;1.27;;;30.60;75.90;;;;;;4857397;29;20514;-85
2022/07/14 10:08:40;;;;;;;7.40;1.27;;;30.60;74.30;;;;;;4846377;29;20041;-85
2022/07/14 10:11:06;;;;;;;6.82;1.27;;;30.70;75.10;;;;;;4850219;29;20030;-85
2022/07/14 10:13:32;;;;;;;4.70;1.20;;;30.80;75.80;;;;;;4856389;29;20045;-85
2022/07/14 10:16:01;;;;;;;6.82;1.73;;;31.00;75.70;;;;;;4850984;29;20425;-85
2022/07/14 10:18:27;;;;;;;5.65;1.70;;;31.10;75.30;;;;;;4838961;29;20034;-85
2022/07/14 10:20:56;;;;;;;3.38;1.92;;;31.20;74.40;;;;;;4840382;29;20030;-85
2022/07/14 10:23:23;;;;;;;5.63;1.45;;;31.30;74.20;;;;;;4841913;29;20109;-85
2022/07/14 10:25:53;;;;;;;3.65;1.30;;;31.30;74.20;;;;;;4861971;29;20330;-85
2022/07/14 10:28:20;;;;;;;3.88;1.70;;;31.40;73.00;;;;;;4853167;29;20036;-85
2022/07/14 10:31:16;;;;;;;5.32;1.52;;;31.50;73.00;;;;;;4857762;29;20048;-85
2022/07/14 10:34:28;;;;;;;6.65;1.40;;;31.50;73.50;;;;;;4862902;29;20026;-85
2022/07/14 10:37:03;;;;;;;2.13;1.40;;;31.60;71.30;;;;;;4849983;29;20033;-86
2022/07/14 10:39:39;;;;;;;6.68;2.40;;;31.60;71.10;;;;;;4849486;29;20030;-85
2022/07/14 10:42:30;;;;;;;5.18;1.35;;;31.80;71.40;;;;;;4867056;29;20202;-85
2022/07/14 10:44:56;;;;;;;4.00;1.30;;;31.90;69.90;;;;;;4866759;29;20032;-85
2022/07/14 10:47:25;;;;;;;7.72;1.13;;;32.00;68.40;;;;;;4859688;29;20056;-85
2022/07/14 10:50:07;;;;;;;5.50;1.27;;;32.10;67.40;;;;;;4859622;29;20037;-85
2022/07/14 10:52:53;;;;;;;4.63;1.58;;;32.10;66.50;;;;;;4856206;29;20026;-85
2022/07/14 10:55:33;;;;;;;8.27;2.13;;;32.10;68.80;;;;;;4860189;29;20033;-85
2022/07/14 10:57:59;;;;;;;4.78;1.27;;;32.30;68.10;;;;;;4853098;29;20022;-86
2022/07/14 11:00:54;;;;;;;5.63;1.25;;;32.40;68.40;;;;;;4866963;29;20081;-88
2022/07/14 11:03:33;;;;;;;6.10;1.45;;;32.50;68.20;;;;;;4868440;29;20044;-89
2022/07/14 11:06:08;;;;;;;4.25;1.10;;;32.60;69.90;;;;;;4856275;29;20022;-88
2022/07/14 11:08:39;;;;;;;6.57;1.50;;;32.40;71.70;;;;;;4863083;29;20113;-88
2022/07/14 11:11:08;;;;;;;5.68;1.55;;;32.30;71.70;;;;;;4857614;29;20045;-88
2022/07/14 11:13:54;;;;;;;7.93;1.60;;;32.20;72.10;;;;;;4863632;29;20021;-89
2022/07/14 11:16:40;;;;;;;5.85;2.70;;;32.30;72.00;;;;;;4850114;29;20025;-88
2022/07/14 11:19:33;;;;;;;10.27;1.92;;;32.30;70.70;;;;;;4862596;29;20108;-88
2022/07/14 11:22:17;;;;;;;2.42;1.33;;;32.30;70.70;;;;;;4854844;29;20030;-83
2022/07/14 11:24:57;;;;;;;1.88;1.40;;;32.30;70.50;;;;;;4865241;29;20021;-83
2022/07/14 11:27:36;;;;;;;2.72;1.30;;;32.40;69.80;;;;;;4844189;29;20026;-82
2022/07/14 11:30:30;;;;;;;8.13;1.60;;;32.20;69.10;;;;;;4850923;29;20015;-83
2022/07/14 11:33:00;;;;;;;6.68;1.52;;;32.20;69.70;;;;;;4859822;29;20097;-82
2022/07/14 11:36:19;;;;;;;5.38;1.73;;;32.30;69.50;;;;;;4839432;29;20126;-83
2022/07/14 11:38:45;;;;;;;4.82;1.65;;;32.30;70.10;;;;;;4831161;29;20049;-83
2022/07/14 11:41:14;;;;;;;4.05;1.20;;;32.40;68.80;;;;;;4841795;29;20022;-83
2022/07/14 11:43:50;;;;;;;6.68;1.40;;;32.40;68.00;;;;;;4839172;29;20054;-83
2022/07/14 11:46:19;;;;;;;5.13;1.30;;;32.50;67.90;;;;;;4852979;29;20491;-83
2022/07/14 11:48:53;;;;;;;2.03;1.13;;;32.50;67.60;;;;;;4838026;29;20048;-83
2022/07/14 11:51:27;;;;;;;3.83;1.45;;;32.50;67.20;;;;;;4839679;29;20029;-83
2022/07/14 11:54:01;;;;;;;3.03;1.23;;;32.60;66.80;;;;;;4838654;29;20030;-83
2022/07/14 11:56:28;;;;;;;2.13;1.27;;;32.80;66.10;;;;;;4837381;29;20034;-83
2022/07/14 11:58:59;;;;;;;8.18;1.30;;;32.90;66.50;;;;;;4839160;29;20033;-83
2022/07/14 12:01:31;;;;;;;3.03;1.05;;;33.10;65.70;;;;;;4841247;29;20074;-83
2022/07/14 12:04:05;;;;;;;3.78;1.20;;;33.20;64.60;;;;;;4842449;29;20030;-83
2022/07/14 12:06:31;;;;;;;3.20;1.25;;;33.20;64.90;;;;;;4849106;29;20049;-83
2022/07/14 12:08:57;;;;;;;3.42;1.10;;;33.10;65.40;;;;;;4852666;29;20034;-82
2022/07/14 12:11:22;;;;;;;2.90;1.17;;;33.10;64.80;;;;;;4853995;29;20033;-81
2022/07/14 12:13:53;;;;;;;3.13;1.00;;;33.20;63.10;;;;;;4853426;29;20403;-76
2022/07/14 12:16:20;;;;;;;4.88;1.20;;;33.20;63.80;;;;;;4847135;29;20033;-79
2022/07/14 12:18:47;;;;;;;4.43;1.38;;;33.40;61.70;;;;;;4844274;29;20214;-79
2022/07/14 12:21:14;;;;;;;5.80;1.33;;;33.30;62.50;;;;;;4841877;29;20022;-79
2022/07/14 12:23:56;;;;;;;1.90;1.10;;;33.40;62.80;;;;;;4841932;29;20014;-79
2022/07/14 12:26:23;;;;;;;4.88;1.00;;;33.70;63.30;;;;;;4841751;29;20030;-79
2022/07/14 12:28:55;;;;;;;3.42;1.00;;;33.50;62.20;;;;;;4842106;29;20061;-79
2022/07/14 12:31:22;;;;;;;2.88;1.10;;;33.60;63.20;;;;;;4844512;29;20026;-79
2022/07/14 12:33:50;;;;;;;4.43;1.40;;;33.60;62.70;;;;;;4841845;29;20032;-79
2022/07/14 12:36:23;;;;;;;3.35;1.30;;;33.50;63.10;;;;;;4842037;29;20022;-79
2022/07/14 12:38:49;;;;;;;1.83;1.10;;;33.40;64.70;;;;;;4841438;29;20086;-80
2022/07/14 12:41:19;;;;;;;4.85;1.15;;;33.50;64.20;;;;;;4841526;29;20018;-80
2022/07/14 12:43:45;;;;;;;4.90;2.00;;;33.70;64.40;;;;;;4855669;29;20403;-80
2022/07/14 12:46:18;;;;;;;4.25;1.70;;;33.80;64.20;;;;;;4841551;29;20029;-79
2022/07/14 12:48:50;;;;;;;;;;;33.90;63.90;;;;;;4841828;29;20030;-80
2022/07/14 12:51:22;;;;;;;4.28;1.60;;;33.80;64.10;;;;;;4841379;29;19909;-79
2022/07/14 12:53:58;;;;;;;4.07;1.65;;;33.40;63.90;;;;;;4843896;29;20026;-80
2022/07/14 12:56:25;;;;;;;4.82;1.50;;;33.10;65.10;;;;;;4839747;29;20040;-80
2022/07/14 12:58:52;;;;;;;9.82;1.90;;;32.80;65.00;;;;;;4841225;29;20462;-80
2022/07/14 13:01:18;;;;;;;8.30;1.80;;;32.80;65.40;;;;;;4838963;29;20560;-80
2022/07/14 13:03:53;;;;;;;3.58;1.58;;;32.60;65.80;;;;;;4842663;29;20056;-80
2022/07/14 13:06:19;;;;;;;10.70;1.90;;;32.60;66.70;;;;;;4839542;29;20053;-79